Time;durP1;ratioP1;P1;durP2;ratioP2;P2;SDS_P1;SDS_P2;PMS_P1;PMS_P2;Temp;Humidity;BMP_temperature;BMP_pressure;BME280_temperature;BME280_humidity;BME280_pressure;Samples;Min_cycle;Max_cycle;Signal;HPM_P1;HPM_P2
2021/08/29 00:00:08;;;;;;;;;;;;;;;;;;2079449;28;4144;-67
2021/08/29 00:01:08;;;;;;;;;;;;;;;;;;2075603;28;4789;-67
2021/08/29 00:02:09;;;;;;;;;;;;;;;;;;2080002;28;4508;-68
2021/08/29 00:03:09;;;;;;;;;;;;;;;;;;2080077;28;4509;-65
2021/08/29 00:04:10;;;;;;;;;;;;;;;;;;2080251;28;3719;-66
2021/08/29 00:05:11;;;;;;;;;;;;;;;;;;2080471;28;4013;-67
2021/08/29 00:06:11;;;;;;;;;;;;;;;;;;2079336;28;4018;-67
2021/08/29 00:07:12;;;;;;;;;;;;;;;;;;2078513;28;5021;-67
2021/08/29 00:08:13;;;;;;;;;;;;;;;;;;2080824;28;4505;-66
2021/08/29 00:09:14;;;;;;;;;;;;;;;;;;2077767;28;2722;-66
2021/08/29 00:10:14;;;;;;;;;;;;;;;;;;2080084;28;4016;-66
2021/08/29 00:11:15;;;;;;;;;;;;;;;;;;2080159;28;4078;-68
2021/08/29 00:12:15;;;;;;;;;;;;;;;;;;2081107;28;3977;-66
2021/08/29 00:13:16;;;;;;;;;;;;;;;;;;2080517;28;1212;-65
2021/08/29 00:14:16;;;;;;;;;;;;;;;;;;2082457;28;1029;-67
2021/08/29 00:15:19;;;;;;;;;;;;;;;;;;2081060;28;1158;-68
2021/08/29 00:16:19;;;;;;;;;;;;;;;;;;2080479;28;3993;-65
2021/08/29 00:17:20;;;;;;;;;;;;;;;;;;2082498;28;4048;-66
2021/08/29 00:18:20;;;;;;;;;;;;;;;;;;2080745;28;1077;-67
2021/08/29 00:19:21;;;;;;;;;;;;;;;;;;2080471;28;1006;-65
2021/08/29 00:20:22;;;;;;;;;;;;;;;;;;2080987;28;4119;-66
2021/08/29 00:21:22;;;;;;;;;;;;;;;;;;2081240;28;3942;-66
2021/08/29 00:22:23;;;;;;;;;;;;;;;;;;2080882;28;4064;-67
2021/08/29 00:23:24;;;;;;;;;;;;;;;;;;2079436;28;4053;-67
2021/08/29 00:24:25;;;;;;;;;;;;;;;;;;2080058;28;3989;-67
2021/08/29 00:25:27;;;;;;;;;;;;;;;;;;2080597;28;1204;-67
2021/08/29 00:26:28;;;;;;;;;;;;;;;;;;2079841;28;1041;-67
2021/08/29 00:27:29;;;;;;;;;;;;;;;;;;2080114;28;3815;-67
2021/08/29 00:28:29;;;;;;;;;;;;;;;;;;2081727;28;3930;-66
2021/08/29 00:29:30;;;;;;;;;;;;;;;;;;2080137;28;4358;-66
2021/08/29 00:30:30;;;;;;;;;;;;;;;;;;2080671;28;4268;-67
2021/08/29 00:31:31;;;;;;;;;;;;;;;;;;2080696;28;1118;-66
2021/08/29 00:32:31;;;;;;;;;;;;;;;;;;2080263;28;3980;-67
2021/08/29 00:33:32;;;;;;;;;;;;;;;;;;2079888;28;1288;-66
2021/08/29 00:34:33;;;;;;;;;;;;;;;;;;2080659;28;1108;-66
2021/08/29 00:35:34;;;;;;;;;;;;;;;;;;2078340;28;4065;-67
2021/08/29 00:36:35;;;;;;;;;;;;;;;;;;2081997;28;4241;-67
2021/08/29 00:37:36;;;;;;;;;;;;;;;;;;2080831;28;1985;-67
2021/08/29 00:38:36;;;;;;;;;;;;;;;;;;2081763;28;3957;-66
2021/08/29 00:39:37;;;;;;;;;;;;;;;;;;2080935;28;1041;-65
2021/08/29 00:40:37;;;;;;;;;;;;;;;;;;2080856;28;3940;-67
2021/08/29 00:41:38;;;;;;;;;;;;;;;;;;2081453;28;1952;-66
2021/08/29 00:42:38;;;;;;;;;;;;;;;;;;2080668;28;4002;-66
2021/08/29 00:43:39;;;;;;;;;;;;;;;;;;2080007;28;4010;-66
2021/08/29 00:44:40;;;;;;;;;;;;;;;;;;2080068;28;3977;-66
2021/08/29 00:45:40;;;;;;;;;;;;;;;;;;2081762;28;3912;-67
2021/08/29 00:46:42;;;;;;;;;;;;;;;;;;2080887;28;1131;-68
2021/08/29 00:47:42;;;;;;;;;;;;;;;;;;2081550;28;3995;-66
2021/08/29 00:48:43;;;;;;;;;;;;;;;;;;2081568;28;4329;-66
2021/08/29 00:49:43;;;;;;;;;;;;;;;;;;2081416;28;1132;-66
2021/08/29 00:50:44;;;;;;;;;;;;;;;;;;2080362;28;4035;-69
2021/08/29 00:51:44;;;;;;;;;;;;;;;;;;2080348;28;1081;-69
2021/08/29 00:52:45;;;;;;;;;;;;;;;;;;2080462;28;3968;-68
2021/08/29 00:53:45;;;;;;;;;;;;;;;;;;2080502;28;4051;-70
2021/08/29 00:54:46;;;;;;;;;;;;;;;;;;2080966;28;1009;-70
2021/08/29 00:55:46;;;;;;;;;;;;;;;;;;2081146;28;4011;-68
2021/08/29 00:56:48;;;;;;;;;;;;;;;;;;2080127;28;3993;-68
2021/08/29 00:57:48;;;;;;;;;;;;;;;;;;2082608;28;1910;-66
2021/08/29 00:58:49;;;;;;;;;;;;;;;;;;2081024;28;2080;-67
2021/08/29 00:59:49;;;;;;;;;;;;;;;;;;2080719;28;4285;-67
2021/08/29 01:00:50;;;;;;;;;;;;;;;;;;2076396;28;3939;-67
2021/08/29 01:01:50;;;;;;;;;;;;;;;;;;2079529;28;3992;-65
2021/08/29 01:02:51;;;;;;;;;;;;;;;;;;2080784;28;4298;-66
2021/08/29 01:03:51;;;;;;;;;;;;;;;;;;2080521;28;1335;-66
2021/08/29 01:04:53;;;;;;;;;;;;;;;;;;2078939;28;3913;-67
2021/08/29 01:05:53;;;;;;;;;;;;;;;;;;2079945;28;3871;-68
2021/08/29 01:06:54;;;;;;;;;;;;;;;;;;2080551;28;3743;-68
2021/08/29 01:07:54;;;;;;;;;;;;;;;;;;2081309;28;4073;-70
2021/08/29 01:08:55;;;;;;;;;;;;;;;;;;2079582;28;4151;-69
2021/08/29 01:09:55;;;;;;;;;;;;;;;;;;2079812;28;4000;-68
2021/08/29 01:10:56;;;;;;;;;;;;;;;;;;2080507;28;2816;-68
2021/08/29 01:11:57;;;;;;;;;;;;;;;;;;2081610;28;3982;-70
2021/08/29 01:12:58;;;;;;;;;;;;;;;;;;2081796;28;1149;-65
2021/08/29 01:13:58;;;;;;;;;;;;;;;;;;2081759;28;3673;-67
2021/08/29 01:14:59;;;;;;;;;;;;;;;;;;2081577;28;1221;-68
2021/08/29 01:15:59;;;;;;;;;;;;;;;;;;2077194;28;4059;-68
2021/08/29 01:17:00;;;;;;;;;;;;;;;;;;2080973;28;1076;-69
2021/08/29 01:18:00;;;;;;;;;;;;;;;;;;2078946;28;3904;-69
2021/08/29 01:19:01;;;;;;;;;;;;;;;;;;2080672;28;3811;-68
2021/08/29 01:20:01;;;;;;;;;;;;;;;;;;2072221;28;4742;-68
2021/08/29 01:21:03;;;;;;;;;;;;;;;;;;2080055;28;4011;-67
2021/08/29 01:22:03;;;;;;;;;;;;;;;;;;2080264;28;4011;-69
2021/08/29 01:23:04;;;;;;;;;;;;;;;;;;2080524;28;4020;-68
2021/08/29 01:24:04;;;;;;;;;;;;;;;;;;2080087;28;1290;-69
2021/08/29 01:25:05;;;;;;;;;;;;;;;;;;2081494;28;4070;-69
2021/08/29 01:26:05;;;;;;;;;;;;;;;;;;2081076;28;3929;-68
2021/08/29 01:27:06;;;;;;;;;;;;;;;;;;2082207;28;1162;-68
2021/08/29 01:28:06;;;;;;;;;;;;;;;;;;2079641;28;4211;-67
2021/08/29 01:29:07;;;;;;;;;;;;;;;;;;2080582;28;4004;-69
2021/08/29 01:30:07;;;;;;;;;;;;;;;;;;2075586;28;4294;-69
2021/08/29 01:31:08;;;;;;;;;;;;;;;;;;2079821;28;1195;-70
2021/08/29 01:32:09;;;;;;;;;;;;;;;;;;2079319;28;4004;-69
2021/08/29 01:33:10;;;;;;;;;;;;;;;;;;2077543;28;3318;-69
2021/08/29 01:34:10;;;;;;;;;;;;;;;;;;2073543;28;3891;-68
2021/08/29 01:35:11;;;;;;;;;;;;;;;;;;2079495;28;1848;-69
2021/08/29 01:36:11;;;;;;;;;;;;;;;;;;2077526;28;3882;-68
2021/08/29 01:37:12;;;;;;;;;;;;;;;;;;2080283;28;3599;-69
2021/08/29 01:38:12;;;;;;;;;;;;;;;;;;2080726;28;1913;-69
2021/08/29 01:39:13;;;;;;;;;;;;;;;;;;2082193;28;1097;-68
2021/08/29 01:40:13;;;;;;;;;;;;;;;;;;2079488;28;4565;-69
2021/08/29 01:41:14;;;;;;;;;;;;;;;;;;2078993;28;4546;-68
2021/08/29 01:42:15;;;;;;;;;;;;;;;;;;2080679;28;3917;-69
2021/08/29 01:43:16;;;;;;;;;;;;;;;;;;2080221;28;1288;-68
2021/08/29 01:44:16;;;;;;;;;;;;;;;;;;2080140;28;1535;-69
2021/08/29 01:45:17;;;;;;;;;;;;;;;;;;2080896;28;3815;-69
2021/08/29 01:46:18;;;;;;;;;;;;;;;;;;2079262;28;3992;-69
2021/08/29 01:47:19;;;;;;;;;;;;;;;;;;2080818;28;3985;-68
2021/08/29 01:48:20;;;;;;;;;;;;;;;;;;2081201;28;1092;-68
2021/08/29 01:49:22;;;;;;;;;;;;;;;;;;2080715;28;1226;-68
2021/08/29 01:50:22;;;;;;;;;;;;;;;;;;2080357;28;3716;-68
2021/08/29 01:51:23;;;;;;;;;;;;;;;;;;2079783;28;3677;-68
2021/08/29 01:52:24;;;;;;;;;;;;;;;;;;2082110;28;1051;-69
2021/08/29 01:53:24;;;;;;;;;;;;;;;;;;2080219;28;3729;-68
2021/08/29 01:54:25;;;;;;;;;;;;;;;;;;2081697;28;1185;-68
2021/08/29 01:55:25;;;;;;;;;;;;;;;;;;2080410;28;1374;-69
2021/08/29 01:56:26;;;;;;;;;;;;;;;;;;2080508;28;3826;-69
2021/08/29 01:57:26;;;;;;;;;;;;;;;;;;2082230;28;4659;-68
2021/08/29 01:58:27;;;;;;;;;;;;;;;;;;2081567;28;3936;-68
2021/08/29 01:59:28;;;;;;;;;;;;;;;;;;2080504;28;4139;-70
2021/08/29 02:00:29;;;;;;;;;;;;;;;;;;2080971;28;3829;-68
2021/08/29 02:01:29;;;;;;;;;;;;;;;;;;2079539;28;4344;-68
2021/08/29 02:02:30;;;;;;;;;;;;;;;;;;2081031;28;1100;-69
2021/08/29 02:03:30;;;;;;;;;;;;;;;;;;2078746;28;4046;-69
2021/08/29 02:04:31;;;;;;;;;;;;;;;;;;2076548;28;1277;-67
2021/08/29 02:05:31;;;;;;;;;;;;;;;;;;2080502;28;1100;-68
2021/08/29 02:06:32;;;;;;;;;;;;;;;;;;2079904;28;4062;-68
2021/08/29 02:07:34;;;;;;;;;;;;;;;;;;2080033;28;4214;-69
2021/08/29 02:08:34;;;;;;;;;;;;;;;;;;2078814;28;3738;-69
2021/08/29 02:09:35;;;;;;;;;;;;;;;;;;2079874;28;2165;-69
2021/08/29 02:10:35;;;;;;;;;;;;;;;;;;2080000;28;3983;-68
2021/08/29 02:11:36;;;;;;;;;;;;;;;;;;2079303;28;4015;-69
2021/08/29 02:12:36;;;;;;;;;;;;;;;;;;2080919;28;1081;-69
2021/08/29 02:13:37;;;;;;;;;;;;;;;;;;2079626;28;1302;-68
2021/08/29 02:14:37;;;;;;;;;;;;;;;;;;2080332;28;4076;-69
2021/08/29 02:15:38;;;;;;;;;;;;;;;;;;2079732;28;4106;-68
2021/08/29 02:16:39;;;;;;;;;;;;;;;;;;2079220;28;4014;-69
2021/08/29 02:17:41;;;;;;;;;;;;;;;;;;2078886;28;4001;-69
2021/08/29 02:18:42;;;;;;;;;;;;;;;;;;2080651;28;3745;-69
2021/08/29 02:19:43;;;;;;;;;;;;;;;;;;2082199;28;1042;-68
2021/08/29 02:20:44;;;;;;;;;;;;;;;;;;2080412;28;3822;-68
2021/08/29 02:21:45;;;;;;;;;;;;;;;;;;2079018;28;4417;-69
2021/08/29 02:22:46;;;;;;;;;;;;;;;;;;2082079;28;1077;-67
2021/08/29 02:23:46;;;;;;;;;;;;;;;;;;2082599;28;3775;-68
2021/08/29 02:24:47;;;;;;;;;;;;;;;;;;2082585;28;1106;-67
2021/08/29 02:25:47;;;;;;;;;;;;;;;;;;2081419;28;3939;-68
2021/08/29 02:26:48;;;;;;;;;;;;;;;;;;2080877;28;4071;-67
2021/08/29 02:27:49;;;;;;;;;;;;;;;;;;2082386;28;4451;-69
2021/08/29 02:28:50;;;;;;;;;;;;;;;;;;2082433;28;1170;-68
2021/08/29 02:29:50;;;;;;;;;;;;;;;;;;2081388;28;3991;-68
2021/08/29 02:30:51;;;;;;;;;;;;;;;;;;2078438;28;4626;-69
2021/08/29 02:31:51;;;;;;;;;;;;;;;;;;2080583;28;3924;-68
2021/08/29 02:32:52;;;;;;;;;;;;;;;;;;2080033;28;4383;-68
2021/08/29 02:33:52;;;;;;;;;;;;;;;;;;2077468;28;3748;-68
2021/08/29 02:34:53;;;;;;;;;;;;;;;;;;2080822;28;4028;-68
2021/08/29 02:35:53;;;;;;;;;;;;;;;;;;2079453;28;4482;-69
2021/08/29 02:36:54;;;;;;;;;;;;;;;;;;2079114;28;4003;-69
2021/08/29 02:37:55;;;;;;;;;;;;;;;;;;2081116;28;4019;-68
2021/08/29 02:38:56;;;;;;;;;;;;;;;;;;2081995;28;1021;-68
2021/08/29 02:39:56;;;;;;;;;;;;;;;;;;2081617;28;4691;-69
2021/08/29 02:40:57;;;;;;;;;;;;;;;;;;2079894;28;3983;-68
2021/08/29 02:41:57;;;;;;;;;;;;;;;;;;2081902;28;4010;-68
2021/08/29 02:42:58;;;;;;;;;;;;;;;;;;2079780;28;4055;-68
2021/08/29 02:43:58;;;;;;;;;;;;;;;;;;2080918;28;903;-69
2021/08/29 02:44:59;;;;;;;;;;;;;;;;;;2080943;28;3842;-69
2021/08/29 02:45:59;;;;;;;;;;;;;;;;;;2081387;28;5210;-68
2021/08/29 02:47:01;;;;;;;;;;;;;;;;;;2079715;28;4020;-68
2021/08/29 02:48:02;;;;;;;;;;;;;;;;;;2082303;28;1151;-68
2021/08/29 02:49:02;;;;;;;;;;;;;;;;;;2080246;28;3929;-67
2021/08/29 02:50:03;;;;;;;;;;;;;;;;;;2079003;28;4134;-68
2021/08/29 02:51:03;;;;;;;;;;;;;;;;;;2080812;28;4049;-68
2021/08/29 02:52:04;;;;;;;;;;;;;;;;;;2082037;28;1080;-69
2021/08/29 02:53:04;;;;;;;;;;;;;;;;;;2081012;28;1320;-67
2021/08/29 02:54:05;;;;;;;;;;;;;;;;;;2081399;28;3960;-69
2021/08/29 02:55:06;;;;;;;;;;;;;;;;;;2079660;28;4605;-68
2021/08/29 02:56:06;;;;;;;;;;;;;;;;;;2080049;28;4299;-68
2021/08/29 02:57:08;;;;;;;;;;;;;;;;;;2079067;28;4065;-67
2021/08/29 02:58:08;;;;;;;;;;;;;;;;;;2080919;28;4293;-68
2021/08/29 02:59:09;;;;;;;;;;;;;;;;;;2080378;28;4086;-69
2021/08/29 03:00:09;;;;;;;;;;;;;;;;;;2080084;28;4445;-69
2021/08/29 03:01:10;;;;;;;;;;;;;;;;;;2080614;28;4011;-70
2021/08/29 03:02:11;;;;;;;;;;;;;;;;;;2080460;28;4231;-68
2021/08/29 03:03:12;;;;;;;;;;;;;;;;;;2081061;28;4415;-67
2021/08/29 03:04:12;;;;;;;;;;;;;;;;;;2080664;28;3981;-68
2021/08/29 03:05:13;;;;;;;;;;;;;;;;;;2081559;28;4096;-68
2021/08/29 03:06:14;;;;;;;;;;;;;;;;;;2078038;28;4011;-70
2021/08/29 03:07:15;;;;;;;;;;;;;;;;;;2080925;28;4028;-70
2021/08/29 03:08:15;;;;;;;;;;;;;;;;;;2080406;28;4087;-69
2021/08/29 03:09:16;;;;;;;;;;;;;;;;;;2081184;28;4592;-68
2021/08/29 03:10:16;;;;;;;;;;;;;;;;;;2080122;28;4526;-67
2021/08/29 03:11:17;;;;;;;;;;;;;;;;;;2081032;28;3836;-69
2021/08/29 03:12:17;;;;;;;;;;;;;;;;;;2080474;28;4008;-68
2021/08/29 03:13:18;;;;;;;;;;;;;;;;;;2081552;28;1370;-68
2021/08/29 03:14:18;;;;;;;;;;;;;;;;;;2080874;28;1123;-68
2021/08/29 03:15:19;;;;;;;;;;;;;;;;;;2082054;28;1076;-68
2021/08/29 03:16:20;;;;;;;;;;;;;;;;;;2079086;28;1102;-69
2021/08/29 03:17:21;;;;;;;;;;;;;;;;;;2081482;28;1344;-70
2021/08/29 03:18:22;;;;;;;;;;;;;;;;;;2081190;28;2017;-69
2021/08/29 03:19:23;;;;;;;;;;;;;;;;;;2081554;28;2292;-69
2021/08/29 03:20:23;;;;;;;;;;;;;;;;;;2080539;28;3753;-68
2021/08/29 03:21:24;;;;;;;;;;;;;;;;;;2081575;28;1038;-68
2021/08/29 03:22:24;;;;;;;;;;;;;;;;;;2080756;28;1081;-69
2021/08/29 03:23:25;;;;;;;;;;;;;;;;;;2078573;28;1284;-68
2021/08/29 03:24:25;;;;;;;;;;;;;;;;;;2079028;28;1175;-69
2021/08/29 03:25:27;;;;;;;;;;;;;;;;;;2081077;28;1031;-69
2021/08/29 03:26:28;;;;;;;;;;;;;;;;;;2079687;28;1065;-68
2021/08/29 03:27:29;;;;;;;;;;;;;;;;;;2081518;28;1237;-68
2021/08/29 03:28:29;;;;;;;;;;;;;;;;;;2080118;28;1034;-69
2021/08/29 03:29:30;;;;;;;;;;;;;;;;;;2080929;28;5338;-69
2021/08/29 03:30:30;;;;;;;;;;;;;;;;;;2080584;28;1937;-69
2021/08/29 03:31:31;;;;;;;;;;;;;;;;;;2080890;28;1158;-69
2021/08/29 03:32:31;;;;;;;;;;;;;;;;;;2080188;28;1049;-68
2021/08/29 03:33:32;;;;;;;;;;;;;;;;;;2079841;28;3936;-68
2021/08/29 03:34:32;;;;;;;;;;;;;;;;;;2076904;28;1233;-68
2021/08/29 03:35:33;;;;;;;;;;;;;;;;;;2079048;28;991;-69
2021/08/29 03:36:34;;;;;;;;;;;;;;;;;;2080711;28;1002;-69
2021/08/29 03:37:35;;;;;;;;;;;;;;;;;;2081373;28;1077;-68
2021/08/29 03:38:37;;;;;;;;;;;;;;;;;;2083639;28;2001;-69
2021/08/29 03:39:37;;;;;;;;;;;;;;;;;;2077222;28;3712;-67
2021/08/29 03:40:38;;;;;;;;;;;;;;;;;;2081964;28;3942;-67
2021/08/29 03:42:40;;;;;;;;;;;;;;;;;;2119950;27;1733;-66
2021/08/29 03:43:40;;;;;;;;;;;;;;;;;;2114506;27;1124;-68
2021/08/29 03:44:41;;;;;;;;;;;;;;;;;;2118214;27;1045;-67
2021/08/29 03:45:41;;;;;;;;;;;;;;;;;;2116318;27;1111;-67
2021/08/29 03:46:42;;;;;;;;;;;;;;;;;;2116362;27;1056;-67
2021/08/29 03:47:42;;;;;;;;;;;;;;;;;;2117880;27;1119;-67
2021/08/29 03:48:43;;;;;;;;;;;;;;;;;;2120347;27;1005;-67
2021/08/29 03:49:44;;;;;;;;;;;;;;;;;;2115801;27;4258;-66
2021/08/29 03:50:45;;;;;;;;;;;;;;;;;;2116866;27;3998;-66
2021/08/29 03:51:46;;;;;;;;;;;;;;;;;;2113614;27;1103;-67
2021/08/29 03:52:46;;;;;;;;;;;;;;;;;;2115293;27;1239;-67
2021/08/29 03:53:47;;;;;;;;;;;;;;;;;;2109526;27;1264;-68
2021/08/29 03:54:47;;;;;;;;;;;;;;;;;;2110941;27;1084;-66
2021/08/29 03:55:48;;;;;;;;;;;;;;;;;;2108270;27;2061;-66
2021/08/29 03:56:48;;;;;;;;;;;;;;;;;;2112707;27;1095;-67
2021/08/29 03:57:50;;;;;;;;;;;;;;;;;;2108907;27;1158;-67
2021/08/29 03:58:51;;;;;;;;;;;;;;;;;;2112519;27;1050;-67
2021/08/29 03:59:52;;;;;;;;;;;;;;;;;;2109828;27;3692;-66
2021/08/29 04:00:52;;;;;;;;;;;;;;;;;;2111138;27;1908;-67
2021/08/29 04:01:53;;;;;;;;;;;;;;;;;;2110290;27;2384;-67
2021/08/29 04:02:53;;;;;;;;;;;;;;;;;;2111046;27;3263;-66
2021/08/29 04:03:54;;;;;;;;;;;;;;;;;;2109866;27;1307;-67
2021/08/29 04:04:54;;;;;;;;;;;;;;;;;;2112072;27;1084;-67
2021/08/29 04:05:55;;;;;;;;;;;;;;;;;;2111520;27;1005;-68
2021/08/29 04:06:55;;;;;;;;;;;;;;;;;;2111571;27;1021;-67
2021/08/29 04:07:57;;;;;;;;;;;;;;;;;;2110588;27;1912;-66
2021/08/29 04:08:57;;;;;;;;;;;;;;;;;;2109740;27;1297;-66
2021/08/29 04:09:58;;;;;;;;;;;;;;;;;;2108936;27;4144;-66
2021/08/29 04:10:58;;;;;;;;;;;;;;;;;;2111800;27;1796;-66
2021/08/29 04:11:59;;;;;;;;;;;;;;;;;;2113063;27;1002;-67
2021/08/29 04:12:59;;;;;;;;;;;;;;;;;;2111776;27;1279;-67
2021/08/29 04:14:00;;;;;;;;;;;;;;;;;;2111556;27;2020;-66
2021/08/29 04:15:00;;;;;;;;;;;;;;;;;;2112092;27;1092;-66
2021/08/29 04:16:01;;;;;;;;;;;;;;;;;;2112443;27;1040;-67
2021/08/29 04:17:02;;;;;;;;;;;;;;;;;;2111625;27;1027;-66
2021/08/29 04:18:03;;;;;;;;;;;;;;;;;;2111516;27;1048;-67
2021/08/29 04:19:04;;;;;;;;;;;;;;;;;;2112113;27;1048;-67
2021/08/29 04:20:04;;;;;;;;;;;;;;;;;;2111431;27;3974;-66
2021/08/29 04:21:05;;;;;;;;;;;;;;;;;;2113054;27;1080;-66
2021/08/29 04:22:05;;;;;;;;;;;;;;;;;;2113939;27;1909;-67
2021/08/29 04:23:06;;;;;;;;;;;;;;;;;;2112927;27;1393;-67
2021/08/29 04:24:06;;;;;;;;;;;;;;;;;;2113011;27;1037;-67
2021/08/29 04:25:07;;;;;;;;;;;;;;;;;;2112882;27;1073;-67
2021/08/29 04:26:07;;;;;;;;;;;;;;;;;;2113094;27;1037;-67
2021/08/29 04:27:08;;;;;;;;;;;;;;;;;;2114316;27;1005;-67
2021/08/29 04:28:08;;;;;;;;;;;;;;;;;;2113842;27;1096;-67
2021/08/29 04:29:10;;;;;;;;;;;;;;;;;;2113777;27;1132;-67
2021/08/29 04:30:10;;;;;;;;;;;;;;;;;;2111521;27;4668;-67
2021/08/29 04:31:11;;;;;;;;;;;;;;;;;;2110404;27;1209;-66
2021/08/29 04:32:11;;;;;;;;;;;;;;;;;;2114046;27;1065;-67
2021/08/29 04:33:12;;;;;;;;;;;;;;;;;;2112125;27;4073;-67
2021/08/29 04:34:12;;;;;;;;;;;;;;;;;;2114439;27;1208;-66
2021/08/29 04:35:13;;;;;;;;;;;;;;;;;;2105917;27;1372;-66
2021/08/29 04:36:13;;;;;;;;;;;;;;;;;;2113665;27;1022;-66
2021/08/29 04:37:14;;;;;;;;;;;;;;;;;;2113704;27;1053;-66
2021/08/29 04:38:15;;;;;;;;;;;;;;;;;;2114128;27;1303;-67
2021/08/29 04:39:16;;;;;;;;;;;;;;;;;;2114779;27;1219;-66
2021/08/29 04:40:16;;;;;;;;;;;;;;;;;;2110291;27;4142;-67
2021/08/29 04:41:18;;;;;;;;;;;;;;;;;;2113480;27;1029;-66
2021/08/29 04:42:18;;;;;;;;;;;;;;;;;;2115552;27;1989;-66
2021/08/29 04:43:19;;;;;;;;;;;;;;;;;;2113317;27;1303;-67
2021/08/29 04:44:19;;;;;;;;;;;;;;;;;;2112769;27;1591;-66
2021/08/29 04:45:20;;;;;;;;;;;;;;;;;;2116199;27;1029;-66
2021/08/29 04:46:20;;;;;;;;;;;;;;;;;;2112090;27;1050;-67
2021/08/29 04:47:21;;;;;;;;;;;;;;;;;;2115661;27;1125;-66
2021/08/29 04:48:22;;;;;;;;;;;;;;;;;;2112069;27;1096;-67
2021/08/29 04:49:23;;;;;;;;;;;;;;;;;;2114210;27;1199;-67
2021/08/29 04:50:23;;;;;;;;;;;;;;;;;;2112028;27;3923;-67
2021/08/29 04:51:24;;;;;;;;;;;;;;;;;;2114163;27;1224;-67
2021/08/29 04:52:24;;;;;;;;;;;;;;;;;;2114713;27;1130;-67
2021/08/29 04:53:25;;;;;;;;;;;;;;;;;;2111068;27;1314;-67
2021/08/29 04:54:25;;;;;;;;;;;;;;;;;;2108510;27;1052;-67
2021/08/29 04:55:26;;;;;;;;;;;;;;;;;;2110045;27;1074;-67
2021/08/29 04:56:26;;;;;;;;;;;;;;;;;;2106168;27;4074;-67
2021/08/29 04:57:27;;;;;;;;;;;;;;;;;;2112496;27;1096;-66
2021/08/29 04:58:27;;;;;;;;;;;;;;;;;;2110732;27;1093;-67
2021/08/29 04:59:29;;;;;;;;;;;;;;;;;;2111300;27;1162;-67
2021/08/29 05:00:29;;;;;;;;;;;;;;;;;;2109583;27;4075;-67
2021/08/29 05:01:31;;;;;;;;;;;;;;;;;;2109909;27;1091;-68
2021/08/29 05:02:31;;;;;;;;;;;;;;;;;;2108383;27;2004;-67
2021/08/29 05:03:32;;;;;;;;;;;;;;;;;;2107111;27;4048;-66
2021/08/29 05:04:32;;;;;;;;;;;;;;;;;;2111401;27;1108;-67
2021/08/29 05:05:33;;;;;;;;;;;;;;;;;;2109395;27;3962;-67
2021/08/29 05:06:34;;;;;;;;;;;;;;;;;;2105261;27;1118;-66
2021/08/29 05:07:34;;;;;;;;;;;;;;;;;;2112477;27;1116;-68
2021/08/29 05:08:35;;;;;;;;;;;;;;;;;;2108020;27;1361;-67
2021/08/29 05:09:36;;;;;;;;;;;;;;;;;;2104291;27;1081;-67
2021/08/29 05:10:37;;;;;;;;;;;;;;;;;;2102667;28;4204;-66
2021/08/29 05:11:37;;;;;;;;;;;;;;;;;;2105376;27;1136;-66
2021/08/29 05:12:38;;;;;;;;;;;;;;;;;;2104016;28;1152;-67
2021/08/29 05:13:38;;;;;;;;;;;;;;;;;;2105195;27;1255;-67
2021/08/29 05:14:39;;;;;;;;;;;;;;;;;;2103167;27;1105;-67
2021/08/29 05:15:39;;;;;;;;;;;;;;;;;;2103543;27;1637;-67
2021/08/29 05:16:40;;;;;;;;;;;;;;;;;;2104923;27;1098;-66
2021/08/29 05:17:40;;;;;;;;;;;;;;;;;;2104629;27;1730;-67
2021/08/29 05:18:42;;;;;;;;;;;;;;;;;;2106747;27;1009;-67
2021/08/29 05:19:42;;;;;;;;;;;;;;;;;;2105540;27;1061;-67
2021/08/29 05:20:43;;;;;;;;;;;;;;;;;;2104614;27;3544;-66
2021/08/29 05:21:44;;;;;;;;;;;;;;;;;;2103882;27;1913;-67
2021/08/29 05:22:44;;;;;;;;;;;;;;;;;;2104788;27;1037;-67
2021/08/29 05:23:45;;;;;;;;;;;;;;;;;;2103138;27;1288;-67
2021/08/29 05:24:45;;;;;;;;;;;;;;;;;;2106140;27;2029;-67
2021/08/29 05:25:46;;;;;;;;;;;;;;;;;;2105411;27;1005;-67
2021/08/29 05:26:46;;;;;;;;;;;;;;;;;;2104455;27;1001;-66
2021/08/29 05:27:47;;;;;;;;;;;;;;;;;;2104096;27;4170;-66
2021/08/29 05:28:48;;;;;;;;;;;;;;;;;;2106300;27;1009;-67
2021/08/29 05:29:49;;;;;;;;;;;;;;;;;;2105829;27;1205;-66
2021/08/29 05:30:49;;;;;;;;;;;;;;;;;;2104856;27;4217;-67
2021/08/29 05:31:50;;;;;;;;;;;;;;;;;;2104675;27;1077;-67
2021/08/29 05:32:50;;;;;;;;;;;;;;;;;;2105662;27;3808;-66
2021/08/29 05:33:51;;;;;;;;;;;;;;;;;;2105209;27;1220;-67
2021/08/29 05:34:51;;;;;;;;;;;;;;;;;;2107919;27;1029;-66
2021/08/29 05:35:52;;;;;;;;;;;;;;;;;;2105429;27;1189;-67
2021/08/29 05:36:52;;;;;;;;;;;;;;;;;;2108330;27;1081;-67
2021/08/29 05:37:53;;;;;;;;;;;;;;;;;;2107490;27;2088;-68
2021/08/29 05:38:54;;;;;;;;;;;;;;;;;;2108445;27;1090;-67
2021/08/29 05:39:55;;;;;;;;;;;;;;;;;;2106031;27;3840;-67
2021/08/29 05:40:55;;;;;;;;;;;;;;;;;;2106211;27;2262;-67
2021/08/29 05:41:56;;;;;;;;;;;;;;;;;;2104276;27;1910;-67
2021/08/29 05:42:56;;;;;;;;;;;;;;;;;;2107829;27;1283;-67
2021/08/29 05:43:57;;;;;;;;;;;;;;;;;;2106163;27;993;-67
2021/08/29 05:44:57;;;;;;;;;;;;;;;;;;2108397;27;1056;-67
2021/08/29 05:45:58;;;;;;;;;;;;;;;;;;2107942;27;1057;-67
2021/08/29 05:46:58;;;;;;;;;;;;;;;;;;2108017;27;1241;-67
2021/08/29 05:47:59;;;;;;;;;;;;;;;;;;2107319;27;3812;-66
2021/08/29 05:49:00;;;;;;;;;;;;;;;;;;2108976;27;1042;-67
2021/08/29 05:50:01;;;;;;;;;;;;;;;;;;2107518;27;1917;-66
2021/08/29 05:51:01;;;;;;;;;;;;;;;;;;2106611;27;3753;-67
2021/08/29 05:52:02;;;;;;;;;;;;;;;;;;2108274;27;1153;-67
2021/08/29 05:53:02;;;;;;;;;;;;;;;;;;2106729;27;1333;-67
2021/08/29 05:54:04;;;;;;;;;;;;;;;;;;2107994;27;1033;-66
2021/08/29 05:55:04;;;;;;;;;;;;;;;;;;2107331;27;1057;-66
2021/08/29 05:56:05;;;;;;;;;;;;;;;;;;2108478;27;1071;-67
2021/08/29 05:57:05;;;;;;;;;;;;;;;;;;2108526;27;1152;-67
2021/08/29 05:58:06;;;;;;;;;;;;;;;;;;2107517;27;4230;-67
2021/08/29 05:59:06;;;;;;;;;;;;;;;;;;2109318;27;1044;-68
2021/08/29 06:00:07;;;;;;;;;;;;;;;;;;2107376;27;4209;-67
2021/08/29 06:01:07;;;;;;;;;;;;;;;;;;2105880;27;2236;-67
2021/08/29 06:02:08;;;;;;;;;;;;;;;;;;2108303;27;1986;-67
2021/08/29 06:03:08;;;;;;;;;;;;;;;;;;2104795;27;1237;-67
2021/08/29 06:04:10;;;;;;;;;;;;;;;;;;2108274;27;1121;-67
2021/08/29 06:05:10;;;;;;;;;;;;;;;;;;2100418;27;1218;-66
2021/08/29 06:06:11;;;;;;;;;;;;;;;;;;2110365;27;1022;-66
2021/08/29 06:07:11;;;;;;;;;;;;;;;;;;2109471;27;1073;-66
2021/08/29 06:08:12;;;;;;;;;;;;;;;;;;2109433;27;4205;-66
2021/08/29 06:09:12;;;;;;;;;;;;;;;;;;2109279;27;1520;-67
2021/08/29 06:10:13;;;;;;;;;;;;;;;;;;2103739;27;3699;-67
2021/08/29 06:11:13;;;;;;;;;;;;;;;;;;2109024;27;1081;-67
2021/08/29 06:12:14;;;;;;;;;;;;;;;;;;2108921;27;1038;-67
2021/08/29 06:13:14;;;;;;;;;;;;;;;;;;2106447;27;3738;-66
2021/08/29 06:14:17;;;;;;;;;;;;;;;;;;2109844;27;1244;-67
2021/08/29 06:15:17;;;;;;;;;;;;;;;;;;2107938;27;1258;-67
2021/08/29 06:16:18;;;;;;;;;;;;;;;;;;2105132;27;1116;-67
2021/08/29 06:17:18;;;;;;;;;;;;;;;;;;2110151;27;1842;-66
2021/08/29 06:18:19;;;;;;;;;;;;;;;;;;2111374;27;1227;-67
2021/08/29 06:19:19;;;;;;;;;;;;;;;;;;2110765;27;1061;-66
2021/08/29 06:20:20;;;;;;;;;;;;;;;;;;2103989;27;4561;-65
2021/08/29 06:21:20;;;;;;;;;;;;;;;;;;2106439;27;1122;-67
2021/08/29 06:22:21;;;;;;;;;;;;;;;;;;2110369;27;1984;-68
2021/08/29 06:23:22;;;;;;;;;;;;;;;;;;2102877;27;1314;-66
2021/08/29 06:24:23;;;;;;;;;;;;;;;;;;2105598;27;1229;-66
2021/08/29 06:25:23;;;;;;;;;;;;;;;;;;2106913;27;1057;-66
2021/08/29 06:26:24;;;;;;;;;;;;;;;;;;2103451;27;1018;-66
2021/08/29 06:27:25;;;;;;;;;;;;;;;;;;2103479;27;4261;-67
2021/08/29 06:28:25;;;;;;;;;;;;;;;;;;2099328;27;4066;-68
2021/08/29 06:29:26;;;;;;;;;;;;;;;;;;2101963;27;3378;-68
2021/08/29 06:30:27;;;;;;;;;;;;;;;;;;2098467;27;4179;-66
2021/08/29 06:31:28;;;;;;;;;;;;;;;;;;2102046;28;1199;-67
2021/08/29 06:32:28;;;;;;;;;;;;;;;;;;2102846;27;1145;-66
2021/08/29 06:33:30;;;;;;;;;;;;;;;;;;2103519;28;3800;-67
2021/08/29 06:34:30;;;;;;;;;;;;;;;;;;2102577;27;1117;-66
2021/08/29 06:35:31;;;;;;;;;;;;;;;;;;2101867;27;4156;-66
2021/08/29 06:36:31;;;;;;;;;;;;;;;;;;2100484;27;4227;-66
2021/08/29 06:37:32;;;;;;;;;;;;;;;;;;2103255;27;4080;-66
2021/08/29 06:38:32;;;;;;;;;;;;;;;;;;2096349;27;4164;-67
2021/08/29 06:39:33;;;;;;;;;;;;;;;;;;2101480;27;1040;-67
2021/08/29 06:40:33;;;;;;;;;;;;;;;;;;2102398;27;3390;-67
2021/08/29 06:41:34;;;;;;;;;;;;;;;;;;2102242;27;4652;-67
2021/08/29 06:42:35;;;;;;;;;;;;;;;;;;2102861;27;1901;-67
2021/08/29 06:43:36;;;;;;;;;;;;;;;;;;2103997;27;3524;-67
2021/08/29 06:44:37;;;;;;;;;;;;;;;;;;2103420;27;4395;-67
2021/08/29 06:45:38;;;;;;;;;;;;;;;;;;2102599;27;4247;-67
2021/08/29 06:46:38;;;;;;;;;;;;;;;;;;2097252;27;4158;-67
2021/08/29 06:47:39;;;;;;;;;;;;;;;;;;2102056;27;4219;-66
2021/08/29 06:48:39;;;;;;;;;;;;;;;;;;2103505;27;4339;-67
2021/08/29 06:49:40;;;;;;;;;;;;;;;;;;2104387;27;4158;-66
2021/08/29 06:50:40;;;;;;;;;;;;;;;;;;2102783;27;4476;-66
2021/08/29 06:51:41;;;;;;;;;;;;;;;;;;2103447;27;3977;-67
2021/08/29 06:52:42;;;;;;;;;;;;;;;;;;2104220;27;1216;-66
2021/08/29 06:53:43;;;;;;;;;;;;;;;;;;2103857;27;4342;-66
2021/08/29 06:54:43;;;;;;;;;;;;;;;;;;2103852;27;1280;-66
2021/08/29 06:55:44;;;;;;;;;;;;;;;;;;2105196;27;4139;-66
2021/08/29 06:56:45;;;;;;;;;;;;;;;;;;2102328;27;4387;-66
2021/08/29 06:57:45;;;;;;;;;;;;;;;;;;2106565;27;4289;-66
2021/08/29 06:58:46;;;;;;;;;;;;;;;;;;2104967;27;4748;-66
2021/08/29 06:59:47;;;;;;;;;;;;;;;;;;2103901;27;4564;-67
2021/08/29 07:00:48;;;;;;;;;;;;;;;;;;2104581;27;4165;-66
2021/08/29 07:01:48;;;;;;;;;;;;;;;;;;2105080;27;4294;-67